sensor_id;sensor_type;location;lat;lon;timestamp;pressure;altitude;pressure_sealevel;temperature;humidity
46023;BME280;31756;47.936;16.224;2023-03-01T00:01:22;99661.44;;;-2.42;100.00
46023;BME280;31756;47.936;16.224;2023-03-01T00:03:48;99667.34;;;-2.58;100.00
46023;BME280;31756;47.936;16.224;2023-03-01T00:06:14;99665.25;;;-2.66;100.00
46023;BME280;31756;47.936;16.224;2023-03-01T00:08:39;99670.44;;;-2.80;100.00
46023;BME280;31756;47.936;16.224;2023-03-01T00:13:43;99672.03;;;-2.98;100.00
46023;BME280;31756;47.936;16.224;2023-03-01T00:16:13;99663.88;;;-3.10;100.00
46023;BME280;31756;47.936;16.224;2023-03-01T00:18:39;99659.81;;;-3.24;100.00
46023;BME280;31756;47.936;16.224;2023-03-01T00:21:05;99663.56;;;-3.32;100.00
46023;BME280;31756;47.936;16.224;2023-03-01T00:23:31;99661.06;;;-3.32;100.00
46023;BME280;31756;47.936;16.224;2023-03-01T00:25:57;99661.75;;;-3.35;100.00
46023;BME280;31756;47.936;16.224;2023-03-01T00:28:22;99659.72;;;-3.42;100.00
46023;BME280;31756;47.936;16.224;2023-03-01T00:30:48;99662.94;;;-3.44;100.00
46023;BME280;31756;47.936;16.224;2023-03-01T00:33:14;99663.63;;;-3.47;100.00
46023;BME280;31756;47.936;16.224;2023-03-01T00:35:39;99663.78;;;-3.44;100.00
46023;BME280;31756;47.936;16.224;2023-03-01T00:38:08;99661.09;;;-3.47;100.00
46023;BME280;31756;47.936;16.224;2023-03-01T00:40:34;99662.59;;;-3.50;100.00
46023;BME280;31756;47.936;16.224;2023-03-01T00:43:00;99662.59;;;-3.50;100.00
46023;BME280;31756;47.936;16.224;2023-03-01T00:45:26;99661.97;;;-3.46;100.00
46023;BME280;31756;47.936;16.224;2023-03-01T00:47:52;99664.88;;;-3.39;100.00
46023;BME280;31756;47.936;16.224;2023-03-01T00:50:17;99663.09;;;-3.41;100.00
46023;BME280;31756;47.936;16.224;2023-03-01T00:52:43;99655.41;;;-3.44;100.00
46023;BME280;31756;47.936;16.224;2023-03-01T00:55:09;99652.97;;;-3.43;100.00
46023;BME280;31756;47.936;16.224;2023-03-01T00:57:35;99656.44;;;-3.41;100.00
46023;BME280;31756;47.936;16.224;2023-03-01T01:00:01;99652.34;;;-3.39;100.00
46023;BME280;31756;47.936;16.224;2023-03-01T01:02:26;99647.31;;;-3.39;100.00
46023;BME280;31756;47.936;16.224;2023-03-01T01:04:52;99648.53;;;-3.32;100.00
46023;BME280;31756;47.936;16.224;2023-03-01T01:07:17;99650.47;;;-3.27;100.00
46023;BME280;31756;47.936;16.224;2023-03-01T01:09:45;99648.28;;;-3.20;100.00
46023;BME280;31756;47.936;16.224;2023-03-01T01:12:11;99642.88;;;-3.12;100.00
46023;BME280;31756;47.936;16.224;2023-03-01T01:14:37;99642.38;;;-3.05;100.00
46023;BME280;31756;47.936;16.224;2023-03-01T01:17:03;99633.59;;;-2.97;100.00
46023;BME280;31756;47.936;16.224;2023-03-01T01:19:28;99627.94;;;-2.93;100.00
46023;BME280;31756;47.936;16.224;2023-03-01T01:21:54;99639.41;;;-2.82;100.00
46023;BME280;31756;47.936;16.224;2023-03-01T01:24:19;99638.84;;;-2.76;100.00
46023;BME280;31756;47.936;16.224;2023-03-01T01:26:45;99629.09;;;-2.70;100.00
46023;BME280;31756;47.936;16.224;2023-03-01T01:29:12;99633.47;;;-2.66;100.00
46023;BME280;31756;47.936;16.224;2023-03-01T01:31:38;99621.06;;;-2.63;100.00
46023;BME280;31756;47.936;16.224;2023-03-01T01:34:04;99624.84;;;-2.55;100.00
46023;BME280;31756;47.936;16.224;2023-03-01T01:36:30;99623.56;;;-2.47;100.00
46023;BME280;31756;47.936;16.224;2023-03-01T01:38:57;99628.06;;;-2.40;100.00
46023;BME280;31756;47.936;16.224;2023-03-01T01:41:22;99618.13;;;-2.38;100.00
46023;BME280;31756;47.936;16.224;2023-03-01T01:44:11;99624.06;;;-2.36;100.00
46023;BME280;31756;47.936;16.224;2023-03-01T01:46:35;99623.38;;;-2.34;100.00
46023;BME280;31756;47.936;16.224;2023-03-01T01:51:39;99615.53;;;-2.22;100.00
46023;BME280;31756;47.936;16.224;2023-03-01T01:54:10;99617.44;;;-2.16;100.00
46023;BME280;31756;47.936;16.224;2023-03-01T01:56:37;99613.59;;;-2.10;100.00
46023;BME280;31756;47.936;16.224;2023-03-01T01:59:05;99603.53;;;-2.10;100.00
46023;BME280;31756;47.936;16.224;2023-03-01T02:01:30;99604.47;;;-2.08;100.00
46023;BME280;31756;47.936;16.224;2023-03-01T02:03:56;99595.44;;;-2.04;100.00
46023;BME280;31756;47.936;16.224;2023-03-01T02:06:26;99592.19;;;-2.02;100.00
46023;BME280;31756;47.936;16.224;2023-03-01T02:08:57;99589.13;;;-1.96;100.00
46023;BME280;31756;47.936;16.224;2023-03-01T02:11:24;99597.72;;;-1.91;100.00
46023;BME280;31756;47.936;16.224;2023-03-01T02:13:51;99597.97;;;-1.85;100.00
46023;BME280;31756;47.936;16.224;2023-03-01T02:16:18;99602.47;;;-1.78;100.00
46023;BME280;31756;47.936;16.224;2023-03-01T02:18:44;99599.13;;;-1.78;100.00
46023;BME280;31756;47.936;16.224;2023-03-01T02:21:13;99599.13;;;-1.78;100.00
46023;BME280;31756;47.936;16.224;2023-03-01T02:23:42;99602.66;;;-1.75;100.00
46023;BME280;31756;47.936;16.224;2023-03-01T02:28:42;99597.47;;;-1.78;100.00
46023;BME280;31756;47.936;16.224;2023-03-01T02:31:09;99597.53;;;-1.76;100.00
46023;BME280;31756;47.936;16.224;2023-03-01T02:33:54;99604.09;;;-1.80;100.00
46023;BME280;31756;47.936;16.224;2023-03-01T02:36:24;99598.41;;;-1.76;100.00
46023;BME280;31756;47.936;16.224;2023-03-01T02:38:52;99597.75;;;-1.72;100.00
46023;BME280;31756;47.936;16.224;2023-03-01T02:41:19;99591.97;;;-1.69;100.00
46023;BME280;31756;47.936;16.224;2023-03-01T02:43:45;99584.53;;;-1.68;100.00
46023;BME280;31756;47.936;16.224;2023-03-01T02:46:21;99584.81;;;-1.62;100.00
46023;BME280;31756;47.936;16.224;2023-03-01T02:48:49;99582.53;;;-1.56;100.00
46023;BME280;31756;47.936;16.224;2023-03-01T02:53:42;99576.81;;;-1.53;100.00
46023;BME280;31756;47.936;16.224;2023-03-01T02:56:10;99565.28;;;-1.48;100.00
46023;BME280;31756;47.936;16.224;2023-03-01T02:58:40;99570.66;;;-1.41;100.00
46023;BME280;31756;47.936;16.224;2023-03-01T03:01:12;99564.97;;;-1.36;100.00
46023;BME280;31756;47.936;16.224;2023-03-01T03:03:40;99563.63;;;-1.28;100.00
46023;BME280;31756;47.936;16.224;2023-03-01T03:06:06;99556.22;;;-1.25;100.00
46023;BME280;31756;47.936;16.224;2023-03-01T03:08:32;99554.75;;;-1.20;100.00
46023;BME280;31756;47.936;16.224;2023-03-01T03:10:58;99556.53;;;-1.18;100.00
46023;BME280;31756;47.936;16.224;2023-03-01T03:13:23;99558.38;;;-1.14;100.00
46023;BME280;31756;47.936;16.224;2023-03-01T03:15:54;99560.09;;;-1.13;100.00
46023;BME280;31756;47.936;16.224;2023-03-01T03:18:20;99560.84;;;-1.15;100.00
46023;BME280;31756;47.936;16.224;2023-03-01T03:20:46;99554.88;;;-1.17;100.00
46023;BME280;31756;47.936;16.224;2023-03-01T03:23:12;99559.03;;;-1.18;100.00
46023;BME280;31756;47.936;16.224;2023-03-01T03:25:38;99547.25;;;-1.19;100.00
46023;BME280;31756;47.936;16.224;2023-03-01T03:28:04;99549.75;;;-1.19;100.00
46023;BME280;31756;47.936;16.224;2023-03-01T03:30:35;99557.31;;;-1.19;100.00
46023;BME280;31756;47.936;16.224;2023-03-01T03:33:00;99553.97;;;-1.19;100.00
46023;BME280;31756;47.936;16.224;2023-03-01T03:35:30;99554.94;;;-1.16;100.00
46023;BME280;31756;47.936;16.224;2023-03-01T03:37:56;99558.31;;;-1.15;100.00
46023;BME280;31756;47.936;16.224;2023-03-01T03:42:56;99551.00;;;-1.09;100.00
46023;BME280;31756;47.936;16.224;2023-03-01T03:45:22;99543.47;;;-1.09;100.00
46023;BME280;31756;47.936;16.224;2023-03-01T03:47:47;99547.72;;;-1.08;100.00
46023;BME280;31756;47.936;16.224;2023-03-01T03:50:13;99538.50;;;-1.08;100.00
46023;BME280;31756;47.936;16.224;2023-03-01T03:52:42;99547.72;;;-1.08;100.00
46023;BME280;31756;47.936;16.224;2023-03-01T03:55:08;99547.78;;;-1.07;100.00
46023;BME280;31756;47.936;16.224;2023-03-01T03:57:35;99551.09;;;-1.08;100.00
46023;BME280;31756;47.936;16.224;2023-03-01T04:00:01;99544.34;;;-1.09;100.00
46023;BME280;31756;47.936;16.224;2023-03-01T04:02:37;99545.78;;;-1.14;100.00
46023;BME280;31756;47.936;16.224;2023-03-01T04:05:03;99545.06;;;-1.11;100.00
46023;BME280;31756;47.936;16.224;2023-03-01T04:07:28;99543.44;;;-1.11;100.00
46023;BME280;31756;47.936;16.224;2023-03-01T04:09:54;99545.50;;;-1.01;100.00
46023;BME280;31756;47.936;16.224;2023-03-01T04:12:19;99543.19;;;-0.96;100.00
46023;BME280;31756;47.936;16.224;2023-03-01T04:14:48;99537.06;;;-1.03;100.00
46023;BME280;31756;47.936;16.224;2023-03-01T04:17:13;99541.94;;;-1.06;100.00
46023;BME280;31756;47.936;16.224;2023-03-01T04:19:39;99533.47;;;-1.08;100.00
46023;BME280;31756;47.936;16.224;2023-03-01T04:22:05;99549.75;;;-1.00;100.00
46023;BME280;31756;47.936;16.224;2023-03-01T04:24:34;99543.97;;;-0.97;100.00
46023;BME280;31756;47.936;16.224;2023-03-01T04:27:00;99547.34;;;-0.97;100.00
46023;BME280;31756;47.936;16.224;2023-03-01T04:29:26;99555.03;;;-0.94;100.00
46023;BME280;31756;47.936;16.224;2023-03-01T04:31:51;99551.31;;;-0.82;100.00
46023;BME280;31756;47.936;16.224;2023-03-01T04:34:17;99543.34;;;-0.72;100.00
46023;BME280;31756;47.936;16.224;2023-03-01T04:36:42;99551.41;;;-0.59;100.00
46023;BME280;31756;47.936;16.224;2023-03-01T04:39:08;99547.56;;;-0.28;100.00
46023;BME280;31756;47.936;16.224;2023-03-01T04:41:37;99549.34;;;-0.04;100.00
46023;BME280;31756;47.936;16.224;2023-03-01T04:44:04;99553.75;;;-0.20;100.00
46023;BME280;31756;47.936;16.224;2023-03-01T04:46:30;99549.47;;;-0.23;100.00
46023;BME280;31756;47.936;16.224;2023-03-01T04:48:55;99558.56;;;-0.26;100.00
46023;BME280;31756;47.936;16.224;2023-03-01T04:51:21;99560.19;;;-0.06;100.00
46023;BME280;31756;47.936;16.224;2023-03-01T04:53:46;99563.09;;;0.05;100.00
46023;BME280;31756;47.936;16.224;2023-03-01T04:56:12;99566.13;;;0.64;100.00
46023;BME280;31756;47.936;16.224;2023-03-01T04:58:41;99572.28;;;0.49;100.00
46023;BME280;31756;47.936;16.224;2023-03-01T05:01:14;99574.47;;;0.39;100.00
46023;BME280;31756;47.936;16.224;2023-03-01T05:03:47;99576.19;;;0.17;100.00
46023;BME280;31756;47.936;16.224;2023-03-01T05:06:12;99571.34;;;0.00;100.00
46023;BME280;31756;47.936;16.224;2023-03-01T05:08:38;99571.69;;;-0.13;100.00
46023;BME280;31756;47.936;16.224;2023-03-01T05:11:04;99569.53;;;-0.26;100.00
46023;BME280;31756;47.936;16.224;2023-03-01T05:13:31;99585.00;;;-0.37;100.00
46023;BME280;31756;47.936;16.224;2023-03-01T05:15:58;99578.06;;;-0.43;100.00
46023;BME280;31756;47.936;16.224;2023-03-01T05:18:24;99580.16;;;-0.54;100.00
46023;BME280;31756;47.936;16.224;2023-03-01T05:20:54;99576.47;;;-0.62;100.00
46023;BME280;31756;47.936;16.224;2023-03-01T05:23:21;99578.19;;;-0.61;100.00
46023;BME280;31756;47.936;16.224;2023-03-01T05:25:47;99576.47;;;-0.62;100.00
46023;BME280;31756;47.936;16.224;2023-03-01T05:28:13;99583.91;;;-0.65;100.00
46023;BME280;31756;47.936;16.224;2023-03-01T05:30:39;99581.31;;;-0.66;100.00
46023;BME280;31756;47.936;16.224;2023-03-01T05:33:05;99581.25;;;-0.68;100.00
46023;BME280;31756;47.936;16.224;2023-03-01T05:35:35;99581.25;;;-0.68;100.00
46023;BME280;31756;47.936;16.224;2023-03-01T05:38:01;99580.41;;;-0.68;100.00
46023;BME280;31756;47.936;16.224;2023-03-01T05:40:26;99578.69;;;-0.69;100.00
46023;BME280;31756;47.936;16.224;2023-03-01T05:42:53;99583.72;;;-0.69;100.00
46023;BME280;31756;47.936;16.224;2023-03-01T05:45:21;99578.56;;;-0.72;100.00
46023;BME280;31756;47.936;16.224;2023-03-01T05:47:48;99582.88;;;-0.70;100.00
46023;BME280;31756;47.936;16.224;2023-03-01T05:50:15;99583.75;;;-0.68;100.00
46023;BME280;31756;47.936;16.224;2023-03-01T05:52:48;99582.28;;;-0.63;100.00
46023;BME280;31756;47.936;16.224;2023-03-01T05:55:14;99582.44;;;-0.60;100.00
46023;BME280;31756;47.936;16.224;2023-03-01T05:57:40;99585.00;;;-0.58;100.00
46023;BME280;31756;47.936;16.224;2023-03-01T06:00:06;99588.69;;;-0.50;100.00
46023;BME280;31756;47.936;16.224;2023-03-01T06:02:37;99587.28;;;-0.43;100.00
46023;BME280;31756;47.936;16.224;2023-03-01T06:05:04;99573.75;;;-0.46;100.00
46023;BME280;31756;47.936;16.224;2023-03-01T06:07:29;99580.53;;;-0.44;100.00
46023;BME280;31756;47.936;16.224;2023-03-01T06:09:55;99584.69;;;-0.45;100.00
46023;BME280;31756;47.936;16.224;2023-03-01T06:12:20;99589.13;;;-0.39;100.00
46023;BME280;31756;47.936;16.224;2023-03-01T06:14:46;99589.13;;;-0.39;100.00
46023;BME280;31756;47.936;16.224;2023-03-01T06:17:12;99584.00;;;-0.41;100.00
46023;BME280;31756;47.936;16.224;2023-03-01T06:19:37;99586.47;;;-0.22;100.00
46023;BME280;31756;47.936;16.224;2023-03-01T06:22:03;99582.91;;;-0.27;100.00
46023;BME280;31756;47.936;16.224;2023-03-01T06:24:28;99579.81;;;-0.20;100.00
46023;BME280;31756;47.936;16.224;2023-03-01T06:26:54;99587.47;;;-0.17;100.00
46023;BME280;31756;47.936;16.224;2023-03-01T06:29:21;99589.38;;;-0.11;100.00
46023;BME280;31756;47.936;16.224;2023-03-01T06:31:47;99590.59;;;-0.02;100.00
46023;BME280;31756;47.936;16.224;2023-03-01T06:34:13;99589.41;;;0.11;100.00
46023;BME280;31756;47.936;16.224;2023-03-01T06:36:39;99589.63;;;0.17;100.00
46023;BME280;31756;47.936;16.224;2023-03-01T06:39:04;99592.91;;;0.15;100.00
46023;BME280;31756;47.936;16.224;2023-03-01T06:41:30;99583.59;;;0.14;100.00
46023;BME280;31756;47.936;16.224;2023-03-01T06:43:56;99577.88;;;0.18;100.00
46023;BME280;31756;47.936;16.224;2023-03-01T06:46:21;99578.31;;;0.30;100.00
46023;BME280;31756;47.936;16.224;2023-03-01T06:48:47;99587.75;;;0.34;100.00
46023;BME280;31756;47.936;16.224;2023-03-01T06:51:12;99590.38;;;0.37;100.00
46023;BME280;31756;47.936;16.224;2023-03-01T06:53:38;99592.78;;;0.34;100.00
46023;BME280;31756;47.936;16.224;2023-03-01T06:56:03;99590.72;;;0.24;100.00
46023;BME280;31756;47.936;16.224;2023-03-01T06:58:29;99593.13;;;0.21;100.00
46023;BME280;31756;47.936;16.224;2023-03-01T07:00:55;99590.78;;;0.25;100.00
46023;BME280;31756;47.936;16.224;2023-03-01T07:03:20;99587.69;;;0.32;100.00
46023;BME280;31756;47.936;16.224;2023-03-01T07:05:48;99584.84;;;0.47;100.00
46023;BME280;31756;47.936;16.224;2023-03-01T07:08:14;99582.78;;;0.59;100.00
46023;BME280;31756;47.936;16.224;2023-03-01T07:10:39;99584.78;;;0.68;100.00
46023;BME280;31756;47.936;16.224;2023-03-01T07:13:05;99594.59;;;0.84;100.00
46023;BME280;31756;47.936;16.224;2023-03-01T07:15:32;99593.13;;;0.90;100.00
46023;BME280;31756;47.936;16.224;2023-03-01T07:17:58;99595.09;;;0.99;100.00
46023;BME280;31756;47.936;16.224;2023-03-01T07:20:23;99596.22;;;1.07;100.00
46023;BME280;31756;47.936;16.224;2023-03-01T07:22:51;99598.09;;;1.13;100.00
46023;BME280;31756;47.936;16.224;2023-03-01T07:25:17;99594.47;;;1.30;100.00
46023;BME280;31756;47.936;16.224;2023-03-01T07:27:42;99608.84;;;1.31;100.00
46023;BME280;31756;47.936;16.224;2023-03-01T07:30:08;99602.00;;;1.28;100.00
46023;BME280;31756;47.936;16.224;2023-03-01T07:32:34;99599.00;;;1.40;100.00
46023;BME280;31756;47.936;16.224;2023-03-01T07:34:59;99596.63;;;1.45;100.00
46023;BME280;31756;47.936;16.224;2023-03-01T07:37:25;99593.69;;;1.58;100.00
46023;BME280;31756;47.936;16.224;2023-03-01T07:39:50;99595.34;;;1.57;100.00
46023;BME280;31756;47.936;16.224;2023-03-01T07:42:16;99597.28;;;1.64;100.00
46023;BME280;31756;47.936;16.224;2023-03-01T07:44:41;99594.47;;;1.55;100.00
46023;BME280;31756;47.936;16.224;2023-03-01T07:47:07;99594.06;;;1.68;100.00
46023;BME280;31756;47.936;16.224;2023-03-01T07:49:32;99599.19;;;1.71;100.00
46023;BME280;31756;47.936;16.224;2023-03-01T07:51:58;99598.38;;;1.72;100.00
46023;BME280;31756;47.936;16.224;2023-03-01T07:54:23;99597.66;;;1.76;100.00
46023;BME280;31756;47.936;16.224;2023-03-01T07:56:49;99597.53;;;1.72;100.00
46023;BME280;31756;47.936;16.224;2023-03-01T07:59:15;99601.66;;;1.70;100.00
46023;BME280;31756;47.936;16.224;2023-03-01T08:01:40;99601.19;;;1.55;100.00
46023;BME280;31756;47.936;16.224;2023-03-01T08:04:07;99590.66;;;1.68;100.00
46023;BME280;31756;47.936;16.224;2023-03-01T08:06:33;99607.63;;;1.72;100.00
46023;BME280;31756;47.936;16.224;2023-03-01T08:08:59;99594.75;;;1.91;100.00
46023;BME280;31756;47.936;16.224;2023-03-01T08:11:25;99591.13;;;1.83;100.00
46023;BME280;31756;47.936;16.224;2023-03-01T08:13:53;99588.94;;;1.67;100.00
46023;BME280;31756;47.936;16.224;2023-03-01T08:16:18;99596.78;;;1.49;100.00
46023;BME280;31756;47.936;16.224;2023-03-01T08:18:44;99589.53;;;1.33;100.00
46023;BME280;31756;47.936;16.224;2023-03-01T08:21:10;99588.97;;;1.42;100.00
46023;BME280;31756;47.936;16.224;2023-03-01T08:23:36;99601.72;;;1.71;100.00
46023;BME280;31756;47.936;16.224;2023-03-01T08:28:31;99587.50;;;2.30;100.00
46023;BME280;31756;47.936;16.224;2023-03-01T08:30:56;99590.59;;;2.50;100.00
46023;BME280;31756;47.936;16.224;2023-03-01T08:33:22;99588.81;;;2.77;100.00
46023;BME280;31756;47.936;16.224;2023-03-01T08:35:47;99590.59;;;2.80;100.00
46023;BME280;31756;47.936;16.224;2023-03-01T08:38:13;99587.59;;;2.94;100.00
46023;BME280;31756;47.936;16.224;2023-03-01T08:40:38;99588.09;;;2.81;100.00
46023;BME280;31756;47.936;16.224;2023-03-01T08:43:04;99583.56;;;3.01;100.00
46023;BME280;31756;47.936;16.224;2023-03-01T08:45:29;99579.88;;;3.22;100.00
46023;BME280;31756;47.936;16.224;2023-03-01T08:47:55;99581.78;;;3.30;100.00
46023;BME280;31756;47.936;16.224;2023-03-01T08:50:20;99580.34;;;3.39;100.00
46023;BME280;31756;47.936;16.224;2023-03-01T08:52:46;99582.03;;;3.40;100.00
46023;BME280;31756;47.936;16.224;2023-03-01T08:55:11;99579.66;;;3.46;100.00
46023;BME280;31756;47.936;16.224;2023-03-01T08:57:36;99576.72;;;3.30;100.00
46023;BME280;31756;47.936;16.224;2023-03-01T09:00:02;99577.13;;;3.46;100.00
46023;BME280;31756;47.936;16.224;2023-03-01T09:02:28;99567.44;;;3.64;100.00
46023;BME280;31756;47.936;16.224;2023-03-01T09:04:54;99564.59;;;3.88;100.00
46023;BME280;31756;47.936;16.224;2023-03-01T09:07:19;99562.53;;;3.74;100.00
46023;BME280;31756;47.936;16.224;2023-03-01T09:09:45;99548.06;;;3.68;100.00
46023;BME280;31756;47.936;16.224;2023-03-01T09:12:10;99545.75;;;3.79;100.00
46023;BME280;31756;47.936;16.224;2023-03-01T09:14:37;99549.84;;;3.72;100.00
46023;BME280;31756;47.936;16.224;2023-03-01T09:17:03;99540.19;;;3.95;100.00
46023;BME280;31756;47.936;16.224;2023-03-01T09:19:30;99532.19;;;3.39;100.00
46023;BME280;31756;47.936;16.224;2023-03-01T09:21:55;99536.09;;;3.27;100.00
46023;BME280;31756;47.936;16.224;2023-03-01T09:24:22;99529.06;;;3.51;100.00
46023;BME280;31756;47.936;16.224;2023-03-01T09:26:48;99524.97;;;3.93;100.00
46023;BME280;31756;47.936;16.224;2023-03-01T09:29:16;99523.16;;;4.70;100.00
46023;BME280;31756;47.936;16.224;2023-03-01T09:31:42;99521.38;;;5.13;100.00
46023;BME280;31756;47.936;16.224;2023-03-01T09:34:08;99526.41;;;5.11;100.00
46023;BME280;31756;47.936;16.224;2023-03-01T09:36:34;99521.69;;;4.83;100.00
46023;BME280;31756;47.936;16.224;2023-03-01T09:38:59;99521.88;;;5.44;100.00
46023;BME280;31756;47.936;16.224;2023-03-01T09:44:20;99519.50;;;5.55;96.54
46023;BME280;31756;47.936;16.224;2023-03-01T09:46:48;99512.84;;;5.65;92.96
46023;BME280;31756;47.936;16.224;2023-03-01T09:49:15;99511.88;;;5.55;93.01
46023;BME280;31756;47.936;16.224;2023-03-01T09:51:42;99510.94;;;5.50;93.45
46023;BME280;31756;47.936;16.224;2023-03-01T09:54:11;99501.06;;;5.70;93.11
46023;BME280;31756;47.936;16.224;2023-03-01T09:56:37;99502.97;;;5.86;92.64
46023;BME280;31756;47.936;16.224;2023-03-01T10:06:43;99483.03;;;6.13;88.86
46023;BME280;31756;47.936;16.224;2023-03-01T10:09:11;99477.78;;;6.01;88.03
46023;BME280;31756;47.936;16.224;2023-03-01T10:11:39;99478.91;;;6.23;88.36
46023;BME280;31756;47.936;16.224;2023-03-01T10:14:13;99473.59;;;6.06;85.90
46023;BME280;31756;47.936;16.224;2023-03-01T10:19:15;99467.28;;;6.48;83.16
46023;BME280;31756;47.936;16.224;2023-03-01T10:21:43;99466.66;;;6.68;81.83
46023;BME280;31756;47.936;16.224;2023-03-01T10:24:17;99457.50;;;6.87;79.48
46023;BME280;31756;47.936;16.224;2023-03-01T10:26:51;99452.91;;;6.54;84.28
46023;BME280;31756;47.936;16.224;2023-03-01T10:29:18;99456.59;;;6.02;85.06
46023;BME280;31756;47.936;16.224;2023-03-01T10:31:49;99446.59;;;5.54;88.48
46023;BME280;31756;47.936;16.224;2023-03-01T10:34:17;99457.53;;;6.12;87.28
46023;BME280;31756;47.936;16.224;2023-03-01T10:36:43;99454.84;;;6.00;86.34
46023;BME280;31756;47.936;16.224;2023-03-01T10:39:27;99448.22;;;6.11;84.19
46023;BME280;31756;47.936;16.224;2023-03-01T10:42:00;99443.22;;;6.18;89.38
46023;BME280;31756;47.936;16.224;2023-03-01T10:44:45;99426.28;;;6.23;90.69
46023;BME280;31756;47.936;16.224;2023-03-01T10:47:15;99435.03;;;6.50;90.14
46023;BME280;31756;47.936;16.224;2023-03-01T10:50:01;99422.38;;;6.56;85.79
46023;BME280;31756;47.936;16.224;2023-03-01T10:52:30;99417.44;;;6.72;88.44
46023;BME280;31756;47.936;16.224;2023-03-01T10:54:58;99405.06;;;7.16;83.94
46023;BME280;31756;47.936;16.224;2023-03-01T10:57:27;99393.88;;;7.01;86.98
46023;BME280;31756;47.936;16.224;2023-03-01T11:00:00;99398.34;;;7.29;81.05
46023;BME280;31756;47.936;16.224;2023-03-01T11:02:30;99397.50;;;7.31;81.09
46023;BME280;31756;47.936;16.224;2023-03-01T11:04:56;99396.84;;;7.66;77.54
46023;BME280;31756;47.936;16.224;2023-03-01T11:07:22;99389.00;;;7.35;82.93
46023;BME280;31756;47.936;16.224;2023-03-01T11:09:48;99389.50;;;6.83;83.89
46023;BME280;31756;47.936;16.224;2023-03-01T11:12:14;99394.47;;;6.71;86.99
46023;BME280;31756;47.936;16.224;2023-03-01T11:14:48;99384.66;;;7.18;88.31
46023;BME280;31756;47.936;16.224;2023-03-01T11:17:25;99384.97;;;7.75;85.01
46023;BME280;31756;47.936;16.224;2023-03-01T11:20:02;99389.19;;;7.66;83.09
46023;BME280;31756;47.936;16.224;2023-03-01T11:22:30;99396.81;;;7.55;82.41
46023;BME280;31756;47.936;16.224;2023-03-01T11:24:57;99383.28;;;7.77;81.14
46023;BME280;31756;47.936;16.224;2023-03-01T11:27:41;99397.72;;;7.71;81.65
46023;BME280;31756;47.936;16.224;2023-03-01T11:32:40;99387.66;;;8.10;79.23
46023;BME280;31756;47.936;16.224;2023-03-01T11:35:17;99392.75;;;8.06;74.91
46023;BME280;31756;47.936;16.224;2023-03-01T11:40:27;99394.56;;;8.39;75.68
46023;BME280;31756;47.936;16.224;2023-03-01T11:43:03;99394.34;;;7.81;81.35
46023;BME280;31756;47.936;16.224;2023-03-01T11:45:35;99387.59;;;7.95;81.44
46023;BME280;31756;47.936;16.224;2023-03-01T11:50:46;99381.72;;;8.20;81.12
46023;BME280;31756;47.936;16.224;2023-03-01T12:08:54;99375.81;;;8.34;83.07
46023;BME280;31756;47.936;16.224;2023-03-01T12:26:53;99360.44;;;8.17;93.14
46023;BME280;31756;47.936;16.224;2023-03-01T12:34:49;99348.56;;;8.49;84.33
46023;BME280;31756;47.936;16.224;2023-03-01T12:37:20;99346.03;;;8.54;82.46
46023;BME280;31756;47.936;16.224;2023-03-01T12:45:03;99336.69;;;8.68;82.49
46023;BME280;31756;47.936;16.224;2023-03-01T12:49:59;99338.38;;;8.67;83.35
46023;BME280;31756;47.936;16.224;2023-03-01T12:52:33;99336.69;;;8.56;80.93
46023;BME280;31756;47.936;16.224;2023-03-01T12:55:01;99334.13;;;8.53;81.17
46023;BME280;31756;47.936;16.224;2023-03-01T12:57:32;99321.34;;;8.51;79.94
46023;BME280;31756;47.936;16.224;2023-03-01T13:02:41;99319.66;;;8.61;81.67
46023;BME280;31756;47.936;16.224;2023-03-01T13:10:40;99315.31;;;8.28;81.14
46023;BME280;31756;47.936;16.224;2023-03-01T13:15:38;99308.56;;;8.44;81.62
46023;BME280;31756;47.936;16.224;2023-03-01T13:23:13;99294.91;;;8.58;82.72
46023;BME280;31756;47.936;16.224;2023-03-01T13:26:07;99294.91;;;8.58;83.25
46023;BME280;31756;47.936;16.224;2023-03-01T13:30:59;99283.88;;;8.65;83.42
46023;BME280;31756;47.936;16.224;2023-03-01T13:35:54;99282.97;;;8.71;80.79
46023;BME280;31756;47.936;16.224;2023-03-01T13:38:39;99278.72;;;8.78;80.20
46023;BME280;31756;47.936;16.224;2023-03-01T13:41:09;99271.06;;;8.62;81.77
46023;BME280;31756;47.936;16.224;2023-03-01T13:43:37;99271.06;;;8.46;83.40
46023;BME280;31756;47.936;16.224;2023-03-01T13:46:20;99267.69;;;8.44;84.44
46023;BME280;31756;47.936;16.224;2023-03-01T13:48:47;99264.25;;;8.63;83.68
46023;BME280;31756;47.936;16.224;2023-03-01T13:51:14;99267.69;;;8.56;83.47
46023;BME280;31756;47.936;16.224;2023-03-01T13:53:42;99262.56;;;8.51;83.75
46023;BME280;31756;47.936;16.224;2023-03-01T13:56:12;99257.44;;;8.65;84.28
46023;BME280;31756;47.936;16.224;2023-03-01T13:58:49;99262.53;;;8.71;83.07
46023;BME280;31756;47.936;16.224;2023-03-01T14:01:29;99253.16;;;8.87;83.25
46023;BME280;31756;47.936;16.224;2023-03-01T14:03:55;99247.19;;;8.76;81.55
46023;BME280;31756;47.936;16.224;2023-03-01T14:06:22;99242.13;;;8.51;82.75
46023;BME280;31756;47.936;16.224;2023-03-01T14:08:48;99252.31;;;8.59;83.32
46023;BME280;31756;47.936;16.224;2023-03-01T14:11:20;99247.19;;;8.79;84.23
46023;BME280;31756;47.936;16.224;2023-03-01T14:21:21;99254.00;;;8.77;82.87
46023;BME280;31756;47.936;16.224;2023-03-01T14:23:47;99258.28;;;8.53;85.34
46023;BME280;31756;47.936;16.224;2023-03-01T14:26:13;99250.63;;;8.64;86.30
46023;BME280;31756;47.936;16.224;2023-03-01T14:28:45;99257.44;;;8.68;86.28
46023;BME280;31756;47.936;16.224;2023-03-01T14:34:16;99256.59;;;8.69;87.78
46023;BME280;31756;47.936;16.224;2023-03-01T14:36:43;99247.22;;;8.22;88.39
46023;BME280;31756;47.936;16.224;2023-03-01T14:39:16;99249.75;;;8.12;90.35
46023;BME280;31756;47.936;16.224;2023-03-01T14:41:42;99251.44;;;8.01;91.65